Time;durP1;ratioP1;P1;durP2;ratioP2;P2;SDS_P1;SDS_P2;PMS_P1;PMS_P2;Temp;Humidity;BMP_temperature;BMP_pressure;BME280_temperature;BME280_humidity;BME280_pressure;Samples;Min_cycle;Max_cycle;Signal;HPM_P1;HPM_P2
2022/07/16 00:02:28;;;;;;;3.23;1.60;;;;;15.70;101519.00;;;;5066883;28;20210;-67
2022/07/16 00:05:15;;;;;;;2.30;2.00;;;;;15.70;101522.00;;;;5066665;28;20228;-69
2022/07/16 00:08:01;;;;;;;2.30;1.60;;;;;15.70;101519.00;;;;5062054;28;20234;-69
2022/07/16 00:10:48;;;;;;;2.00;1.63;;;;;15.70;101517.00;;;;5063271;28;20217;-69
2022/07/16 00:16:40;;;;;;;1.83;1.60;;;;;15.80;101514.00;;;;4903830;29;20459;-69
2022/07/16 00:19:26;;;;;;;2.93;1.50;;;;;15.80;101512.00;;;;4910091;29;20929;-70
2022/07/16 00:22:12;;;;;;;2.20;1.90;;;;;15.70;101517.00;;;;4911573;29;20905;-70
2022/07/16 00:24:58;;;;;;;1.70;1.60;;;;;15.80;101518.00;;;;4913180;29;20319;-70
2022/07/16 00:27:45;;;;;;;1.70;1.60;;;;;15.80;101522.00;;;;4912205;29;20226;-70
2022/07/16 00:30:31;;;;;;;5.10;2.00;;;;;15.80;101518.00;;;;4913065;29;20289;-70
2022/07/16 00:33:18;;;;;;;1.90;1.70;;;;;15.70;101515.00;;;;4912220;29;20261;-67
2022/07/16 00:36:05;;;;;;;2.13;1.80;;;;;15.60;101512.00;;;;4914813;29;20236;-70
2022/07/16 00:38:51;;;;;;;1.80;1.70;;;;;15.50;101513.00;;;;4911658;29;20231;-70
2022/07/16 00:41:39;;;;;;;1.97;1.83;;;;;15.40;101511.00;;;;4903798;29;20216;-70
2022/07/16 00:44:25;;;;;;;2.57;1.90;;;;;15.40;101512.00;;;;4909972;29;20319;-69
2022/07/16 00:47:12;;;;;;;3.00;2.03;;;;;15.40;101505.00;;;;4910605;29;20214;-66
2022/07/16 00:49:59;;;;;;;2.87;1.90;;;;;15.40;101515.00;;;;4910891;29;20228;-70
2022/07/16 00:52:45;;;;;;;2.10;1.90;;;;;15.50;101513.00;;;;4911155;29;20709;-70
2022/07/16 00:55:32;;;;;;;2.60;1.83;;;;;15.50;101511.00;;;;4907857;29;20311;-70
2022/07/16 00:58:18;;;;;;;3.70;2.10;;;;;15.60;101503.00;;;;4908302;29;20218;-69
2022/07/16 01:01:05;;;;;;;2.47;1.83;;;;;15.70;101500.00;;;;4905156;29;20216;-67
2022/07/16 01:03:51;;;;;;;2.60;1.87;;;;;15.80;101505.00;;;;4905581;29;20348;-69
2022/07/16 01:06:40;;;;;;;2.17;1.70;;;;;15.70;101498.00;;;;4905908;29;20227;-70
2022/07/16 01:09:27;;;;;;;4.93;2.13;;;;;15.60;101498.00;;;;4897600;29;20298;-68
2022/07/16 01:12:13;;;;;;;2.43;2.10;;;;;15.60;101501.00;;;;4903386;29;20233;-69
2022/07/16 01:15:00;;;;;;;2.00;1.80;;;;;15.40;101516.00;;;;4907443;29;20240;-69
2022/07/16 01:17:46;;;;;;;2.73;1.87;;;;;15.40;101516.00;;;;4900903;29;20215;-69
2022/07/16 01:20:32;;;;;;;2.10;1.90;;;;;15.40;101507.00;;;;4901307;29;20222;-69
2022/07/16 01:23:21;;;;;;;3.00;2.13;;;;;15.50;101520.00;;;;4898227;29;20235;-68
2022/07/16 01:26:07;;;;;;;1.90;1.77;;;;;15.50;101510.00;;;;4913326;29;20245;-67
2022/07/16 01:28:53;;;;;;;2.00;1.77;;;;;15.50;101503.00;;;;4909472;29;20211;-67
2022/07/16 01:31:40;;;;;;;3.07;2.30;;;;;15.50;101507.00;;;;4903216;29;20715;-66
2022/07/16 01:34:26;;;;;;;3.00;2.40;;;;;15.50;101502.00;;;;4901969;29;20235;-69
2022/07/16 01:37:14;;;;;;;5.07;2.00;;;;;15.50;101497.00;;;;4905473;29;20307;-69
2022/07/16 01:40:03;;;;;;;2.97;2.43;;;;;15.50;101495.00;;;;4904576;29;20223;-66
2022/07/16 01:42:49;;;;;;;3.80;2.30;;;;;15.50;101508.00;;;;4909242;29;20295;-69
2022/07/16 01:45:35;;;;;;;4.77;2.50;;;;;15.60;101507.00;;;;4910208;29;20265;-69
2022/07/16 01:48:22;;;;;;;2.60;2.20;;;;;15.70;101501.00;;;;4901712;29;20243;-68
2022/07/16 01:51:09;;;;;;;2.90;2.50;;;;;15.60;101501.00;;;;4913737;29;20342;-70
2022/07/16 01:53:55;;;;;;;4.53;2.40;;;;;15.70;101494.00;;;;4918155;29;20742;-69
2022/07/16 01:56:43;;;;;;;3.13;2.60;;;;;15.70;101497.00;;;;4906319;29;20218;-69
2022/07/16 01:59:30;;;;;;;3.50;2.47;;;;;15.70;101490.00;;;;4904358;29;20579;-71
2022/07/16 02:02:16;;;;;;;4.53;2.20;;;;;15.70;101497.00;;;;4909266;29;20227;-69
2022/07/16 02:05:02;;;;;;;2.27;2.07;;;;;15.60;101496.00;;;;4911101;29;20764;-69
2022/07/16 02:07:48;;;;;;;3.97;2.20;;;;;15.70;101490.00;;;;4912789;29;20215;-69
2022/07/16 02:10:35;;;;;;;5.03;2.53;;;;;15.70;101497.00;;;;4898983;29;20377;-69
2022/07/16 02:13:23;;;;;;;3.33;2.63;;;;;15.80;101484.00;;;;4904661;29;20379;-70
2022/07/16 02:16:10;;;;;;;3.47;2.57;;;;;15.80;101486.00;;;;4900124;29;20247;-69
2022/07/16 02:18:56;;;;;;;7.00;2.40;;;;;15.80;101483.00;;;;4902192;29;20213;-71
2022/07/16 02:21:42;;;;;;;3.57;2.30;;;;;15.80;101481.00;;;;4895851;29;20277;-69
2022/07/16 02:24:29;;;;;;;2.70;2.30;;;;;15.90;101481.00;;;;4904736;29;20504;-70
2022/07/16 02:27:15;;;;;;;3.77;2.20;;;;;15.90;101481.00;;;;4906069;29;20219;-68
2022/07/16 02:30:04;;;;;;;2.93;2.40;;;;;15.90;101476.00;;;;4913234;29;20233;-69
2022/07/16 02:32:51;;;;;;;2.50;2.30;;;;;15.90;101485.00;;;;4909570;29;20230;-70
2022/07/16 02:35:38;;;;;;;3.17;2.40;;;;;15.90;101489.00;;;;4911450;29;20282;-70
2022/07/16 02:38:24;;;;;;;3.37;2.37;;;;;15.90;101481.00;;;;4912548;29;20228;-67
2022/07/16 02:41:10;;;;;;;3.27;2.60;;;;;15.90;101487.00;;;;4906019;29;20228;-71
2022/07/16 02:43:56;;;;;;;4.10;2.53;;;;;15.90;101483.00;;;;4902968;29;20268;-70
2022/07/16 02:46:44;;;;;;;2.60;2.40;;;;;15.90;101488.00;;;;4897095;29;20223;-70
2022/07/16 02:49:31;;;;;;;2.33;2.13;;;;;15.80;101486.00;;;;4899760;29;20236;-69
2022/07/16 02:52:17;;;;;;;3.67;2.40;;;;;15.80;101484.00;;;;4904825;29;20235;-70
2022/07/16 02:55:04;;;;;;;2.47;2.27;;;;;15.90;101468.00;;;;4910898;29;20249;-70
2022/07/16 02:57:50;;;;;;;3.67;2.57;;;;;16.00;101471.00;;;;4897115;29;20723;-70
2022/07/16 03:00:37;;;;;;;3.00;2.17;;;;;15.90;101479.00;;;;4900330;29;20221;-71
2022/07/16 03:03:25;;;;;;;3.77;2.30;;;;;15.90;101475.00;;;;4898919;29;20344;-70
2022/07/16 03:06:11;;;;;;;4.37;2.40;;;;;15.90;101471.00;;;;4903347;29;20767;-68
2022/07/16 03:08:57;;;;;;;4.20;2.70;;;;;15.90;101474.00;;;;4896787;29;20319;-70
2022/07/16 03:11:44;;;;;;;2.83;2.30;;;;;15.90;101474.00;;;;4898826;29;20228;-70
2022/07/16 03:14:30;;;;;;;4.13;2.40;;;;;15.90;101469.00;;;;4908665;29;20227;-70
2022/07/16 03:17:16;;;;;;;3.07;2.17;;;;;15.90;101467.00;;;;4902731;29;20216;-70
2022/07/16 03:20:05;;;;;;;3.10;2.50;;;;;16.00;101463.00;;;;4900578;29;20626;-70
2022/07/16 03:22:52;;;;;;;3.73;2.10;;;;;16.00;101465.00;;;;4897620;29;20254;-69
2022/07/16 03:25:41;;;;;;;2.90;2.30;;;;;16.00;101470.00;;;;4904195;29;20827;-70
2022/07/16 03:28:27;;;;;;;2.67;2.40;;;;;16.00;101473.00;;;;4909293;29;20216;-70
2022/07/16 03:31:15;;;;;;;5.23;2.60;;;;;16.00;101464.00;;;;4900431;29;20862;-69
2022/07/16 03:34:01;;;;;;;3.73;2.43;;;;;16.00;101465.00;;;;4906006;29;20774;-69
2022/07/16 03:36:49;;;;;;;2.97;2.13;;;;;16.00;101464.00;;;;4904434;29;20868;-70
2022/07/16 03:39:35;;;;;;;2.37;2.13;;;;;16.00;101466.00;;;;4899768;29;20228;-69
2022/07/16 03:42:22;;;;;;;4.17;2.23;;;;;16.00;101470.00;;;;4912161;29;20218;-70
2022/07/16 03:45:09;;;;;;;5.07;2.73;;;;;16.00;101478.00;;;;4908596;29;20234;-70
2022/07/16 03:47:56;;;;;;;2.87;2.20;;;;;16.00;101481.00;;;;4910063;29;20283;-69
2022/07/16 03:50:42;;;;;;;2.43;2.23;;;;;16.00;101488.00;;;;4899471;29;20212;-70
2022/07/16 03:53:29;;;;;;;3.47;2.37;;;;;16.00;101486.00;;;;4907071;29;20845;-68
2022/07/16 03:56:16;;;;;;;3.63;2.50;;;;;16.10;101490.00;;;;4904956;29;20299;-67
2022/07/16 03:59:03;;;;;;;2.73;2.37;;;;;16.00;101492.00;;;;4913198;29;20231;-70
2022/07/16 04:01:50;;;;;;;3.77;2.17;;;;;16.10;101495.00;;;;4912710;29;20298;-71
2022/07/16 04:04:36;;;;;;;2.37;2.07;;;;;16.10;101504.00;;;;4902378;29;20254;-69
2022/07/16 04:07:22;;;;;;;2.83;2.40;;;;;16.10;101503.00;;;;4917440;29;20221;-70
2022/07/16 04:10:10;;;;;;;4.33;2.23;;;;;16.00;101503.00;;;;4906025;29;20217;-70
2022/07/16 04:12:56;;;;;;;6.40;2.13;;;;;16.10;101503.00;;;;4912990;29;20249;-69
2022/07/16 04:15:42;;;;;;;3.53;2.00;;;;;16.00;101509.00;;;;4900607;29;20263;-70
2022/07/16 04:18:28;;;;;;;3.90;2.23;;;;;16.10;101511.00;;;;4908441;29;20335;-69
2022/07/16 04:21:15;;;;;;;2.27;2.07;;;;;16.20;101509.00;;;;4906225;29;20348;-70
2022/07/16 04:24:01;;;;;;;4.00;2.27;;;;;16.20;101505.00;;;;4903488;29;20320;-68
2022/07/16 04:26:48;;;;;;;2.77;2.17;;;;;16.20;101507.00;;;;4903032;29;20216;-70
2022/07/16 04:29:34;;;;;;;4.87;2.20;;;;;16.20;101511.00;;;;4906355;29;20972;-70
2022/07/16 04:32:21;;;;;;;2.10;1.90;;;;;16.30;101513.00;;;;4904225;29;20220;-70
2022/07/16 04:35:10;;;;;;;3.63;1.73;;;;;16.30;101515.00;;;;4905252;29;20252;-70
2022/07/16 04:37:56;;;;;;;2.17;1.90;;;;;16.40;101516.00;;;;4902412;29;20252;-70
2022/07/16 04:40:42;;;;;;;5.30;2.00;;;;;16.50;101518.00;;;;4902350;29;20215;-70
2022/07/16 04:43:29;;;;;;;1.80;1.70;;;;;16.50;101523.00;;;;4907171;29;20216;-70
2022/07/16 04:46:16;;;;;;;2.33;2.03;;;;;16.50;101521.00;;;;4906558;29;20320;-71
2022/07/16 04:49:02;;;;;;;2.90;2.17;;;;;16.50;101520.00;;;;4910303;29;20357;-70
2022/07/16 04:51:48;;;;;;;2.50;1.97;;;;;16.50;101524.00;;;;4901754;29;20219;-70
2022/07/16 04:54:34;;;;;;;4.80;2.30;;;;;16.60;101529.00;;;;4910313;29;21386;-70
2022/07/16 04:57:21;;;;;;;2.43;2.00;;;;;16.70;101534.00;;;;4913626;29;20285;-70
2022/07/16 05:00:10;;;;;;;2.70;2.20;;;;;16.80;101536.00;;;;4917992;29;20220;-70
2022/07/16 05:02:59;;;;;;;2.37;2.00;;;;;16.80;101524.00;;;;4909713;29;20292;-70
2022/07/16 05:05:46;;;;;;;2.30;2.10;;;;;16.80;101534.00;;;;4911803;29;20240;-68
2022/07/16 05:08:33;;;;;;;2.70;2.20;;;;;16.80;101535.00;;;;4900001;29;20294;-70
2022/07/16 05:11:26;;;;;;;3.83;2.63;;;;;16.90;101534.00;;;;4900284;29;20301;-70
2022/07/16 05:14:13;;;;;;;2.87;2.37;;;;;17.00;101527.00;;;;4904285;29;20260;-70
2022/07/16 05:17:00;;;;;;;2.93;2.23;;;;;17.10;101534.00;;;;4908701;29;20286;-69
2022/07/16 05:19:47;;;;;;;6.23;3.00;;;;;17.20;101545.00;;;;4900749;29;20213;-69
2022/07/16 05:22:33;;;;;;;3.87;2.63;;;;;17.30;101540.00;;;;4903172;29;20214;-70
2022/07/16 05:25:19;;;;;;;3.77;2.30;;;;;17.40;101546.00;;;;4899882;29;20742;-70
2022/07/16 05:28:06;;;;;;;5.53;2.40;;;;;17.40;101539.00;;;;4901927;29;20711;-70
2022/07/16 05:30:52;;;;;;;4.00;3.30;;;;;17.40;101547.00;;;;4897669;29;20343;-69
2022/07/16 05:33:39;;;;;;;3.07;2.70;;;;;17.50;101540.00;;;;4900980;29;20229;-70
2022/07/16 05:36:26;;;;;;;3.53;2.13;;;;;17.50;101554.00;;;;4907739;29;20221;-70
2022/07/16 05:39:12;;;;;;;4.20;2.67;;;;;17.70;101553.00;;;;4897567;29;20222;-69
2022/07/16 05:41:58;;;;;;;3.60;2.47;;;;;17.70;101551.00;;;;4906035;29;20926;-70
2022/07/16 05:44:45;;;;;;;4.00;2.27;;;;;17.70;101565.00;;;;4906331;29;20339;-69
2022/07/16 05:47:33;;;;;;;3.00;2.27;;;;;17.70;101564.00;;;;4901660;29;20319;-69
2022/07/16 05:50:21;;;;;;;2.97;2.30;;;;;17.80;101574.00;;;;4909119;29;20794;-69
2022/07/16 05:53:07;;;;;;;4.20;2.30;;;;;17.80;101567.00;;;;4907869;29;20585;-70
2022/07/16 05:55:53;;;;;;;5.23;2.50;;;;;17.90;101575.00;;;;4907939;29;20233;-70
2022/07/16 05:58:39;;;;;;;3.27;1.97;;;;;17.90;101580.00;;;;4907894;29;20915;-69
2022/07/16 06:01:25;;;;;;;2.00;1.60;;;;;17.90;101587.00;;;;4910027;29;20213;-68
2022/07/16 06:04:12;;;;;;;2.07;1.60;;;;;17.90;101593.00;;;;4909988;29;20225;-70
2022/07/16 06:07:00;;;;;;;1.70;1.50;;;;;18.00;101598.00;;;;4908407;29;20245;-69
2022/07/16 06:09:46;;;;;;;4.40;1.60;;;;;17.90;101586.00;;;;4899236;29;20344;-67
2022/07/16 06:12:33;;;;;;;1.50;1.33;;;;;17.90;101592.00;;;;4901995;29;20345;-69
2022/07/16 06:15:19;;;;;;;1.30;1.20;;;;;17.90;101593.00;;;;4900943;29;20370;-70
2022/07/16 06:18:05;;;;;;;2.10;1.20;;;;;17.90;101588.00;;;;4894654;29;20302;-69
2022/07/16 06:20:51;;;;;;;1.07;0.93;;;;;17.90;101595.00;;;;4897991;29;20214;-69
2022/07/16 06:23:39;;;;;;;1.33;1.23;;;;;18.00;101602.00;;;;4903918;29;20218;-68
2022/07/16 06:26:25;;;;;;;1.20;1.10;;;;;18.10;101597.00;;;;4902152;29;20226;-67
2022/07/16 06:29:11;;;;;;;1.20;1.10;;;;;18.00;101602.00;;;;4899778;29;20785;-70
2022/07/16 06:31:58;;;;;;;1.57;1.23;;;;;18.20;101602.00;;;;4908148;29;20218;-68
2022/07/16 06:34:44;;;;;;;3.20;0.90;;;;;18.10;101613.00;;;;4900908;29;20242;-67
2022/07/16 06:37:30;;;;;;;2.73;1.30;;;;;18.20;101612.00;;;;4903991;29;20218;-67
2022/07/16 06:40:18;;;;;;;1.20;1.10;;;;;18.20;101626.00;;;;4910940;29;20213;-68
2022/07/16 06:43:06;;;;;;;1.30;1.03;;;;;18.10;101625.00;;;;4900056;29;20245;-68
2022/07/16 06:45:52;;;;;;;1.73;1.20;;;;;18.10;101633.00;;;;4899171;29;20234;-65
2022/07/16 06:48:38;;;;;;;1.07;1.00;;;;;18.00;101621.00;;;;4903706;29;20214;-69
2022/07/16 06:51:24;;;;;;;1.30;1.10;;;;;18.00;101624.00;;;;4906206;29;20221;-69
2022/07/16 06:54:10;;;;;;;4.60;1.40;;;;;17.90;101631.00;;;;4898523;29;20246;-68
2022/07/16 06:56:58;;;;;;;2.27;1.20;;;;;17.80;101628.00;;;;4895592;29;20263;-68
2022/07/16 06:59:44;;;;;;;5.47;1.50;;;;;18.00;101641.00;;;;4909310;29;20218;-65
2022/07/16 07:02:30;;;;;;;1.80;1.63;;;;;18.10;101641.00;;;;4903341;29;20217;-70
2022/07/16 07:05:17;;;;;;;2.23;1.53;;;;;18.30;101654.00;;;;4906810;29;20747;-69
2022/07/16 07:08:04;;;;;;;1.00;1.00;;;;;18.20;101649.00;;;;4902273;29;20221;-70
2022/07/16 07:10:50;;;;;;;2.63;1.23;;;;;18.40;101644.00;;;;4902679;29;20217;-70
2022/07/16 07:13:38;;;;;;;1.80;1.20;;;;;18.30;101660.00;;;;4909564;29;20247;-70
2022/07/16 07:16:25;;;;;;;2.37;1.27;;;;;18.30;101662.00;;;;4901120;29;20232;-69
2022/07/16 07:19:11;;;;;;;3.80;1.20;;;;;18.30;101669.00;;;;4900440;29;20217;-70
2022/07/16 07:21:58;;;;;;;1.50;1.23;;;;;18.20;101664.00;;;;4905542;29;20263;-70
2022/07/16 07:24:44;;;;;;;1.47;1.23;;;;;18.40;101674.00;;;;4900482;29;20750;-70
2022/07/16 07:27:33;;;;;;;1.83;1.33;;;;;18.60;101667.00;;;;4897810;29;20214;-70
2022/07/16 07:30:21;;;;;;;1.20;1.00;;;;;18.80;101663.00;;;;4900321;29;20699;-70
2022/07/16 07:33:07;;;;;;;1.60;1.00;;;;;18.90;101656.00;;;;4902710;29;20217;-70
2022/07/16 07:35:54;;;;;;;1.43;1.13;;;;;19.10;101661.00;;;;4898398;29;20250;-70
2022/07/16 07:38:40;;;;;;;1.90;1.33;;;;;19.10;101656.00;;;;4897862;29;20224;-68
2022/07/16 07:41:26;;;;;;;1.77;1.23;;;;;19.20;101665.00;;;;4901356;29;20289;-70
2022/07/16 07:44:12;;;;;;;2.57;1.40;;;;;19.10;101668.00;;;;4900385;29;20273;-69
2022/07/16 07:47:00;;;;;;;3.30;1.40;;;;;19.30;101670.00;;;;4897498;29;20234;-69
2022/07/16 07:49:47;;;;;;;3.00;1.33;;;;;19.30;101670.00;;;;4894275;29;20258;-69
2022/07/16 07:52:33;;;;;;;1.50;1.33;;;;;19.30;101674.00;;;;4901345;29;20217;-70
2022/07/16 07:55:20;;;;;;;3.07;1.20;;;;;19.10;101682.00;;;;4897222;29;20297;-70
2022/07/16 07:58:12;;;;;;;2.17;1.27;;;;;18.80;101683.00;;;;4909066;29;20221;-70
2022/07/16 08:00:58;;;;;;;1.90;1.40;;;;;19.00;101684.00;;;;4905725;29;20226;-68
2022/07/16 08:04:06;;;;;;;1.97;1.40;;;;;19.40;101676.00;;;;4905478;29;20227;-69
2022/07/16 08:06:52;;;;;;;1.30;1.10;;;;;19.70;101683.00;;;;4892533;29;20210;-70
2022/07/16 08:09:39;;;;;;;1.60;1.17;;;;;19.90;101682.00;;;;4903543;29;20230;-69
2022/07/16 08:12:25;;;;;;;4.83;1.30;;;;;20.00;101685.00;;;;4904169;29;20218;-67
2022/07/16 08:15:13;;;;;;;2.17;1.10;;;;;20.20;101684.00;;;;4906701;29;20269;-69
2022/07/16 08:18:01;;;;;;;1.00;1.00;;;;;20.00;101682.00;;;;4904403;29;20615;-70
2022/07/16 08:20:49;;;;;;;3.00;1.27;;;;;20.00;101691.00;;;;4906685;29;20238;-70
2022/07/16 08:26:40;;;;;;;2.43;1.20;;;;;20.10;101691.00;;;;4907998;29;20565;-70
2022/07/16 08:29:26;;;;;;;1.07;0.97;;;;;20.30;101685.00;;;;4913749;29;20294;-69
2022/07/16 08:32:13;;;;;;;1.70;0.97;;;;;20.50;101705.00;;;;4910837;29;20241;-69
2022/07/16 08:35:00;;;;;;;2.00;1.20;;;;;20.30;101712.00;;;;4913234;29;20599;-70
2022/07/16 08:37:48;;;;;;;4.07;1.17;;;;;19.90;101697.00;;;;4898902;29;20222;-70
2022/07/16 08:40:35;;;;;;;3.10;1.30;;;;;19.70;101712.00;;;;4910139;29;20218;-69
2022/07/16 08:43:22;;;;;;;2.03;1.17;;;;;19.90;101715.00;;;;4899875;29;20418;-68
2022/07/16 08:46:10;;;;;;;1.87;1.10;;;;;20.10;101708.00;;;;4907577;29;20302;-68
2022/07/16 08:48:57;;;;;;;1.43;1.00;;;;;20.50;101704.00;;;;4905785;29;20222;-68
2022/07/16 08:51:43;;;;;;;1.67;1.10;;;;;20.70;101697.00;;;;4909418;29;20409;-68
2022/07/16 08:54:31;;;;;;;0.97;0.97;;;;;20.60;101723.00;;;;4905376;29;20339;-66
2022/07/16 08:57:18;;;;;;;2.90;1.00;;;;;20.70;101717.00;;;;4909141;29;20711;-68
2022/07/16 09:00:06;;;;;;;2.80;0.90;;;;;20.90;101719.00;;;;4911931;29;20576;-69
2022/07/16 09:02:52;;;;;;;1.00;0.90;;;;;21.00;101719.00;;;;4903324;29;20585;-68
2022/07/16 09:05:39;;;;;;;2.27;1.13;;;;;21.10;101719.00;;;;4910552;29;20245;-69
2022/07/16 09:08:25;;;;;;;0.80;0.80;;;;;21.30;101736.00;;;;4902677;29;20250;-67
2022/07/16 09:11:21;;;;;;;2.27;1.20;;;;;21.40;101734.00;;;;4904110;29;20230;-69
2022/07/16 09:14:08;;;;;;;1.57;1.03;;;;;21.30;101733.00;;;;4896126;29;20276;-69
2022/07/16 09:16:55;;;;;;;2.13;1.00;;;;;21.50;101743.00;;;;4907954;29;20238;-73
2022/07/16 09:19:41;;;;;;;0.97;0.97;;;;;21.80;101747.00;;;;4902427;29;20226;-72
2022/07/16 09:22:29;;;;;;;2.07;1.07;;;;;21.80;101748.00;;;;4898963;29;20235;-72
2022/07/16 09:25:15;;;;;;;1.10;1.00;;;;;21.80;101761.00;;;;4901169;29;20619;-72
2022/07/16 09:28:02;;;;;;;2.17;1.00;;;;;21.80;101759.00;;;;4901346;29;20283;-74
2022/07/16 09:30:49;;;;;;;1.90;0.90;;;;;21.80;101771.00;;;;4895841;29;20705;-74
2022/07/16 09:33:36;;;;;;;2.13;0.93;;;;;21.90;101753.00;;;;4900857;29;20222;-73
2022/07/16 09:36:22;;;;;;;4.53;2.20;;;;;22.20;101768.00;;;;4896617;29;20238;-72
2022/07/16 09:39:09;;;;;;;1.63;1.00;;;;;22.40;101768.00;;;;4913642;29;20592;-73
2022/07/16 09:41:56;;;;;;;1.37;1.00;;;;;22.20;101768.00;;;;4902547;29;20747;-70
2022/07/16 09:44:44;;;;;;;0.90;0.90;;;;;22.10;101767.00;;;;4898600;29;20596;-72
2022/07/16 09:47:31;;;;;;;1.77;1.10;;;;;21.70;101787.00;;;;4908187;29;20229;-71
2022/07/16 09:50:18;;;;;;;2.80;1.10;;;;;21.90;101783.00;;;;4912447;29;20215;-72
2022/07/16 09:53:14;;;;;;;1.47;1.00;;;;;22.40;101782.00;;;;4905335;29;20295;-73
2022/07/16 09:56:03;;;;;;;4.17;1.37;;;;;22.40;101789.00;;;;4904146;29;20244;-69
2022/07/16 09:58:51;;;;;;;1.27;0.80;;;;;22.00;101793.00;;;;4910165;29;20223;-72
2022/07/16 10:01:39;;;;;;;2.10;1.00;;;;;22.10;101795.00;;;;4909089;29;20220;-72
2022/07/16 10:04:25;;;;;;;1.10;0.93;;;;;22.40;101797.00;;;;4903461;29;20363;-73
2022/07/16 10:07:12;;;;;;;0.90;0.80;;;;;22.30;101802.00;;;;4900404;29;20240;-72
2022/07/16 10:09:58;;;;;;;3.37;0.97;;;;;22.50;101804.00;;;;4905845;29;20233;-71
2022/07/16 10:12:48;;;;;;;2.27;1.20;;;;;22.50;101813.00;;;;4909508;29;20212;-77
2022/07/16 10:15:35;;;;;;;1.73;1.00;;;;;22.20;101809.00;;;;4899524;29;20739;-73
2022/07/16 10:18:34;;;;;;;0.90;0.90;;;;;22.30;101802.00;;;;4899451;29;20233;-72
2022/07/16 10:21:23;;;;;;;0.80;0.80;;;;;22.50;101812.00;;;;4912174;29;20285;-71
2022/07/16 10:24:13;;;;;;;1.47;0.93;;;;;22.90;101809.00;;;;4905194;29;20257;-73
2022/07/16 10:27:18;;;;;;;3.03;0.90;;;;;22.90;101824.00;;;;4897222;29;20222;-73
2022/07/16 10:30:13;;;;;;;2.23;0.93;;;;;22.70;101827.00;;;;4905096;29;20232;-71
2022/07/16 10:33:17;;;;;;;1.47;0.90;;;;;23.10;101823.00;;;;4903471;29;20292;-74
2022/07/16 10:36:06;;;;;;;2.27;0.70;;;;;23.40;101831.00;;;;4892565;29;20237;-73
2022/07/16 10:39:05;;;;;;;1.63;0.90;;;;;23.50;101836.00;;;;4898252;29;20218;-70
2022/07/16 10:41:53;;;;;;;1.87;1.00;;;;;24.00;101841.00;;;;4901206;29;20219;-66
2022/07/16 10:44:45;;;;;;;3.20;0.90;;;;;24.10;101854.00;;;;4899653;29;20255;-70
2022/07/16 10:47:45;;;;;;;1.37;0.80;;;;;23.40;101845.00;;;;4904292;29;20925;-70
2022/07/16 10:50:32;;;;;;;0.80;0.80;;;;;22.80;101847.00;;;;4903895;29;20595;-71
2022/07/16 10:53:20;;;;;;;1.07;0.87;;;;;22.40;101844.00;;;;4903558;29;20214;-71
2022/07/16 10:56:33;;;;;;;2.40;0.90;;;;;22.90;101845.00;;;;4910209;29;20722;-73
2022/07/16 10:59:23;;;;;;;2.97;0.83;;;;;23.30;101853.00;;;;4909555;29;20221;-70
2022/07/16 11:02:11;;;;;;;1.60;0.93;;;;;23.90;101851.00;;;;4913762;29;20220;-68
2022/07/16 11:04:57;;;;;;;0.87;0.87;;;;;23.80;101853.00;;;;4905148;29;20783;-70
2022/07/16 11:07:44;;;;;;;0.97;0.80;;;;;23.00;101857.00;;;;4910199;29;20216;-74
2022/07/16 11:10:31;;;;;;;1.90;0.70;;;;;22.70;101872.00;;;;4906095;29;20268;-74
2022/07/16 11:13:19;;;;;;;0.70;0.70;;;;;23.40;101869.00;;;;4901239;29;20738;-75
2022/07/16 11:16:08;;;;;;;2.70;1.20;;;;;24.00;101870.00;;;;4907220;29;20745;-70
2022/07/16 11:18:55;;;;;;;2.23;0.70;;;;;23.50;101873.00;;;;4900924;29;20214;-68
2022/07/16 11:21:52;;;;;;;2.57;0.97;;;;;23.20;101876.00;;;;4898357;29;20604;-70
2022/07/16 11:24:45;;;;;;;1.30;0.90;;;;;22.80;101884.00;;;;4904763;29;20341;-70
2022/07/16 11:27:35;;;;;;;2.30;0.90;;;;;22.90;101878.00;;;;4904126;29;20321;-71
2022/07/16 11:30:21;;;;;;;2.03;0.97;;;;;23.30;101883.00;;;;4905651;29;20875;-70
2022/07/16 11:33:07;;;;;;;1.30;0.80;;;;;23.60;101875.00;;;;4901903;29;20240;-69
2022/07/16 11:36:05;;;;;;;0.80;0.80;;;;;24.10;101873.00;;;;4898662;29;20238;-71
2022/07/16 11:38:57;;;;;;;1.23;0.90;;;;;24.60;101870.00;;;;4907462;29;20220;-71
2022/07/16 11:41:45;;;;;;;3.80;1.10;;;;;24.30;101892.00;;;;4901991;29;20627;-72
2022/07/16 11:44:34;;;;;;;4.10;0.90;;;;;24.40;101891.00;;;;4906820;29;20941;-73
2022/07/16 11:47:23;;;;;;;1.23;0.93;;;;;24.40;101883.00;;;;4901980;29;20307;-70
2022/07/16 11:50:10;;;;;;;1.47;0.83;;;;;23.80;101881.00;;;;4902382;29;20230;-68
2022/07/16 11:52:56;;;;;;;1.57;0.90;;;;;23.40;101884.00;;;;4908790;29;20368;-71
2022/07/16 11:55:43;;;;;;;1.37;0.97;;;;;23.10;101885.00;;;;4915221;29;20257;-72
2022/07/16 11:58:29;;;;;;;4.50;0.93;;;;;23.60;101881.00;;;;4903790;29;20292;-70
2022/07/16 12:01:24;;;;;;;0.80;0.80;;;;;24.40;101881.00;;;;4904550;29;20222;-72
2022/07/16 12:04:11;;;;;;;3.03;1.50;;;;;24.80;101884.00;;;;4900795;29;20266;-72
2022/07/16 12:06:58;;;;;;;2.43;1.47;;;;;25.10;101897.00;;;;4902981;29;20238;-72
2022/07/16 12:09:45;;;;;;;0.73;0.70;;;;;25.00;101890.00;;;;4901484;29;20298;-70
2022/07/16 12:12:34;;;;;;;2.47;0.80;;;;;25.00;101893.00;;;;4903617;29;20269;-71
2022/07/16 12:15:21;;;;;;;1.23;0.70;;;;;24.20;101893.00;;;;4914840;29;20246;-72
2022/07/16 12:18:14;;;;;;;0.80;0.80;;;;;23.60;101879.00;;;;4901344;29;20616;-70
2022/07/16 12:21:26;;;;;;;1.70;1.00;;;;;24.00;101888.00;;;;4905085;29;20286;-71
2022/07/16 12:24:12;;;;;;;1.73;0.90;;;;;24.70;101893.00;;;;4899250;29;20221;-71
2022/07/16 12:26:58;;;;;;;1.00;0.90;;;;;25.10;101888.00;;;;4909941;29;20210;-70
2022/07/16 12:29:45;;;;;;;2.57;0.80;;;;;25.70;101895.00;;;;4905793;29;20259;-71
2022/07/16 12:32:46;;;;;;;5.60;1.17;;;;;25.70;101897.00;;;;4902027;29;20727;-70
2022/07/16 12:35:42;;;;;;;2.67;0.90;;;;;25.80;101897.00;;;;4903917;29;20253;-70
2022/07/16 12:38:48;;;;;;;1.50;0.83;;;;;26.10;101897.00;;;;4905198;29;20225;-73
2022/07/16 12:41:39;;;;;;;2.33;0.80;;;;;26.10;101897.00;;;;4904456;29;20210;-72
2022/07/16 12:44:26;;;;;;;1.60;0.90;;;;;25.70;101895.00;;;;4907030;29;20357;-70
2022/07/16 12:47:12;;;;;;;0.80;0.80;;;;;25.80;101898.00;;;;4906591;29;20222;-69
2022/07/16 12:50:00;;;;;;;2.73;0.70;;;;;26.30;101904.00;;;;4904066;29;20327;-67
2022/07/16 12:52:48;;;;;;;1.73;0.90;;;;;26.40;101897.00;;;;4910993;29;20217;-70
2022/07/16 12:58:48;;;;;;;0.93;0.70;;;;;25.50;101893.00;;;;4902533;29;20236;-69
2022/07/16 13:01:39;;;;;;;0.73;0.70;;;;;26.20;101907.00;;;;4896965;29;20370;-70
2022/07/16 13:04:25;;;;;;;1.23;0.93;;;;;26.30;101903.00;;;;4905758;29;20285;-72
2022/07/16 13:07:12;;;;;;;1.77;0.93;;;;;26.70;101918.00;;;;4900350;29;20587;-70
2022/07/16 13:09:59;;;;;;;2.03;1.10;;;;;26.50;101916.00;;;;4916679;29;20225;-70
2022/07/16 13:12:46;;;;;;;1.03;0.70;;;;;26.60;101921.00;;;;4910691;29;20342;-71
2022/07/16 13:15:32;;;;;;;1.53;0.80;;;;;26.60;101922.00;;;;4904107;29;20291;-71
2022/07/16 13:18:18;;;;;;;1.90;0.90;;;;;26.20;101918.00;;;;4907926;29;20240;-70
2022/07/16 13:21:05;;;;;;;1.10;0.80;;;;;26.50;101912.00;;;;4905340;29;20354;-69
2022/07/16 13:23:54;;;;;;;1.10;0.60;;;;;26.90;101915.00;;;;4908706;29;20870;-72
2022/07/16 13:26:41;;;;;;;2.88;1.00;;;;;27.10;101915.00;;;;4909747;29;20234;-71
2022/07/16 13:29:48;;;;;;;2.47;0.87;;;;;27.20;101913.00;;;;4900207;29;20229;-69
2022/07/16 13:52:39;;;;;;;1.65;0.77;;;;;27.20;101929.00;;;;5115718;27;20580;-68
2022/07/16 13:55:25;;;;;;;1.60;1.00;;;;;27.30;101914.00;;;;5089926;28;20199;-69
2022/07/16 13:58:14;;;;;;;1.98;0.68;;;;;27.50;101924.00;;;;5096793;28;20223;-69
2022/07/16 14:01:01;;;;;;;1.15;1.10;;;;;27.30;101918.00;;;;5092564;28;20232;-69
2022/07/16 14:03:47;;;;;;;4.85;0.90;;;;;27.60;101933.00;;;;5102206;28;20230;-68
2022/07/16 14:06:34;;;;;;;0.63;0.63;;;;;27.50;101927.00;;;;5099484;28;20215;-69
2022/07/16 14:09:22;;;;;;;2.75;0.73;;;;;27.60;101933.00;;;;5096231;28;20233;-68
2022/07/16 14:12:09;;;;;;;1.25;0.60;;;;;27.60;101922.00;;;;5103725;28;20234;-69
2022/07/16 14:14:55;;;;;;;1.05;0.70;;;;;27.70;101926.00;;;;5101403;28;20203;-69
2022/07/16 14:17:42;;;;;;;0.73;0.65;;;;;27.90;101927.00;;;;5096328;28;20650;-69
2022/07/16 14:20:29;;;;;;;0.93;0.73;;;;;28.20;101939.00;;;;5102922;28;20251;-69